createdAt,value
2017-05-14T00:01:43.406Z,14.40
2017-05-14T00:04:13.144Z,14.40
2017-05-14T00:06:42.847Z,14.30
2017-05-14T00:09:12.544Z,14.20
2017-05-14T00:11:42.275Z,14.40
2017-05-14T00:14:11.975Z,14.50
2017-05-14T00:16:42.127Z,14.20
2017-05-14T00:19:11.897Z,14.40
2017-05-14T00:21:41.624Z,14.40
2017-05-14T00:24:11.375Z,14.40
2017-05-14T00:26:41.177Z,14.40
2017-05-14T00:29:10.854Z,14.10
2017-05-14T00:31:39.876Z,14.10
2017-05-14T00:34:09.570Z,14.30
2017-05-14T00:36:39.331Z,14.40
2017-05-14T00:39:09.136Z,14.30
2017-05-14T00:41:38.836Z,14.30
2017-05-14T00:44:08.523Z,14.30
2017-05-14T00:46:38.196Z,14.00
2017-05-14T00:49:07.905Z,13.80
2017-05-14T00:51:37.604Z,14.00
2017-05-14T00:54:07.345Z,14.10
2017-05-14T00:56:36.244Z,14.00
2017-05-14T00:59:05.975Z,14.00
2017-05-14T01:01:35.656Z,14.00
2017-05-14T01:04:05.357Z,13.70
2017-05-14T01:06:34.253Z,13.70
2017-05-14T01:09:04.000Z,13.70
2017-05-14T01:11:33.686Z,13.90
2017-05-14T01:14:03.643Z,14.00
2017-05-14T01:16:33.335Z,14.00
2017-05-14T01:19:03.236Z,14.10
2017-05-14T01:21:32.912Z,14.10
2017-05-14T01:24:01.781Z,14.10
2017-05-14T01:26:31.561Z,13.90
2017-05-14T01:29:01.283Z,14.00
2017-05-14T01:31:31.323Z,13.70
2017-05-14T01:34:01.013Z,13.50
2017-05-14T01:36:30.860Z,13.60
2017-05-14T01:39:00.617Z,13.70
2017-05-14T01:41:30.286Z,13.80
2017-05-14T01:44:00.059Z,13.80
2017-05-14T01:46:29.821Z,13.70
2017-05-14T01:48:59.526Z,13.80
2017-05-14T01:51:29.258Z,13.80
2017-05-14T01:53:58.940Z,13.80
2017-05-14T01:56:28.604Z,13.70
2017-05-14T01:58:58.325Z,13.70
2017-05-14T02:01:28.004Z,13.60
2017-05-14T02:03:57.655Z,13.40
2017-05-14T02:06:27.308Z,13.30
2017-05-14T02:08:56.964Z,13.30
2017-05-14T02:14:05.448Z,13.20
2017-05-14T02:16:35.204Z,13.30
2017-05-14T02:19:04.955Z,13.30
2017-05-14T02:22:54.375Z,13.40
2017-05-14T02:25:24.048Z,13.50
2017-05-14T02:27:53.735Z,13.50
2017-05-14T02:30:37.808Z,13.50
2017-05-14T02:33:07.711Z,13.50
2017-05-14T02:35:37.408Z,13.50
2017-05-14T02:38:07.372Z,13.40
2017-05-14T02:40:37.062Z,13.40
2017-05-14T02:43:06.738Z,13.40
2017-05-14T02:45:36.420Z,13.40
2017-05-14T02:48:06.101Z,13.40
2017-05-14T02:50:35.811Z,13.40
2017-05-14T02:53:05.507Z,13.50
2017-05-14T02:55:35.322Z,13.50
2017-05-14T02:58:05.028Z,13.60
2017-05-14T03:00:34.700Z,13.60
2017-05-14T03:03:04.381Z,13.50
2017-05-14T03:05:34.062Z,13.70
2017-05-14T03:08:03.725Z,13.70
2017-05-14T03:10:33.367Z,13.70
2017-05-14T03:13:03.077Z,13.70
2017-05-14T03:15:32.755Z,13.60
2017-05-14T03:18:02.476Z,13.70
2017-05-14T03:20:32.242Z,13.70
2017-05-14T03:23:01.921Z,13.70
2017-05-14T03:25:31.736Z,13.60
2017-05-14T03:28:01.435Z,13.70
2017-05-14T03:30:31.149Z,13.70
2017-05-14T03:33:00.857Z,13.60
2017-05-14T03:35:30.736Z,13.50
2017-05-14T03:38:00.444Z,13.60
2017-05-14T03:40:30.131Z,13.60
2017-05-14T03:42:59.834Z,13.70
2017-05-14T03:45:29.504Z,13.70
2017-05-14T03:47:59.160Z,13.60
2017-05-14T03:50:28.081Z,13.50
2017-05-14T03:52:57.749Z,13.60
2017-05-14T03:55:27.412Z,13.70
2017-05-14T03:57:57.123Z,13.80
2017-05-14T04:00:26.799Z,13.70
2017-05-14T04:02:56.511Z,13.80
2017-05-14T04:05:26.211Z,13.80
2017-05-14T04:07:55.894Z,13.90
2017-05-14T04:10:25.554Z,13.80
2017-05-14T04:12:55.223Z,13.80
2017-05-14T04:15:24.896Z,13.80
2017-05-14T04:17:54.579Z,13.90
2017-05-14T04:20:24.281Z,13.90
2017-05-14T04:22:54.195Z,13.90
2017-05-14T04:25:23.888Z,13.90
2017-05-14T04:27:53.598Z,13.80
2017-05-14T04:30:23.280Z,13.70
2017-05-14T04:32:52.974Z,13.50
2017-05-14T04:35:22.644Z,13.60
2017-05-14T04:37:52.560Z,13.50
2017-05-14T04:40:22.307Z,13.70
2017-05-14T04:42:52.007Z,13.70
2017-05-14T04:45:21.756Z,13.70
2017-05-14T04:47:51.459Z,13.80
2017-05-14T04:50:21.189Z,14.00
2017-05-14T04:52:50.855Z,14.00
2017-05-14T04:55:20.612Z,13.80
2017-05-14T04:57:50.273Z,13.70
2017-05-14T05:00:19.945Z,13.80
2017-05-14T05:02:49.681Z,14.00
2017-05-14T05:05:19.407Z,13.90
2017-05-14T05:07:49.392Z,14.00
2017-05-14T05:10:19.628Z,13.70
2017-05-14T05:12:49.408Z,13.40
2017-05-14T05:15:19.156Z,13.50
2017-05-14T05:17:48.857Z,13.50
2017-05-14T05:20:18.577Z,13.60
2017-05-14T05:22:47.468Z,13.50
2017-05-14T05:25:17.178Z,13.70
2017-05-14T05:27:46.876Z,13.60
2017-05-14T05:30:16.571Z,13.70
2017-05-14T05:32:46.302Z,13.80
2017-05-14T05:35:16.003Z,13.80
2017-05-14T05:37:45.711Z,13.80
2017-05-14T05:40:15.398Z,13.70
2017-05-14T05:42:45.119Z,13.60
2017-05-14T05:45:14.841Z,13.60
2017-05-14T05:47:44.552Z,13.50
2017-05-14T05:50:14.267Z,13.30
2017-05-14T05:52:43.956Z,13.20
2017-05-14T05:55:13.696Z,13.20
2017-05-14T05:57:43.430Z,13.20
2017-05-14T06:00:13.150Z,13.20
2017-05-14T06:02:42.870Z,13.20
2017-05-14T06:05:12.781Z,13.20
2017-05-14T06:07:42.464Z,13.10
2017-05-14T06:10:12.181Z,13.20
2017-05-14T06:12:41.866Z,13.20
2017-05-14T06:15:11.567Z,13.30
2017-05-14T06:17:41.248Z,13.30
2017-05-14T06:20:10.991Z,13.40
2017-05-14T06:22:40.753Z,13.50
2017-05-14T06:25:10.536Z,13.40
2017-05-14T06:27:41.614Z,13.80
2017-05-14T06:30:11.308Z,13.80
2017-05-14T06:32:41.019Z,13.70
2017-05-14T06:35:10.736Z,13.60
2017-05-14T06:37:40.511Z,13.40
2017-05-14T06:40:10.212Z,13.30
2017-05-14T06:42:39.904Z,13.30
2017-05-14T06:45:08.852Z,13.30
2017-05-14T06:47:38.530Z,13.30
2017-05-14T06:50:15.087Z,13.10
2017-05-14T06:52:44.793Z,13.20
2017-05-14T06:56:17.036Z,13.10
2017-05-14T06:58:46.827Z,13.20
2017-05-14T07:01:16.540Z,13.30
2017-05-14T07:03:46.424Z,13.20
2017-05-14T07:06:16.158Z,13.10
2017-05-14T07:08:45.887Z,13.10
2017-05-14T07:11:15.819Z,13.10
2017-05-14T07:13:45.480Z,13.10
2017-05-14T07:16:15.163Z,13.20
2017-05-14T07:18:44.139Z,13.10
2017-05-14T07:21:13.835Z,13.20
2017-05-14T07:23:43.560Z,13.40
2017-05-14T07:26:13.504Z,13.40
2017-05-14T07:28:43.261Z,13.40
2017-05-14T07:31:13.612Z,13.60
2017-05-14T07:33:43.316Z,13.60
2017-05-14T07:36:12.322Z,13.60
2017-05-14T07:38:42.063Z,13.60
2017-05-14T07:41:12.191Z,13.60
2017-05-14T07:43:41.934Z,13.70
2017-05-14T07:46:12.095Z,13.70
2017-05-14T07:48:41.847Z,13.70
2017-05-14T07:51:11.613Z,13.70
2017-05-14T07:53:42.292Z,13.70
2017-05-14T07:56:11.989Z,13.80
2017-05-14T07:58:41.745Z,13.90
2017-05-14T08:01:11.558Z,14.00
2017-05-14T08:03:41.365Z,14.00
2017-05-14T08:06:11.140Z,14.00
2017-05-14T08:08:41.719Z,14.10
2017-05-14T08:11:10.705Z,14.00
2017-05-14T08:13:40.509Z,14.20
2017-05-14T08:16:10.261Z,14.10
2017-05-14T08:18:40.815Z,14.30
2017-05-14T08:21:10.576Z,14.40
2017-05-14T08:23:40.277Z,14.50
2017-05-14T08:26:10.000Z,14.80
2017-05-14T08:28:39.762Z,14.90
2017-05-14T08:31:09.647Z,15.50
2017-05-14T08:33:39.457Z,15.80
2017-05-14T08:36:09.233Z,16.30
2017-05-14T08:38:39.050Z,17.20
2017-05-14T08:41:08.789Z,17.60
2017-05-14T08:43:39.151Z,17.90
2017-05-14T08:46:09.820Z,18.00
2017-05-14T08:48:39.519Z,17.50
2017-05-14T08:51:09.266Z,17.90
2017-05-14T08:53:39.813Z,18.20
2017-05-14T08:56:09.531Z,18.90
2017-05-14T08:58:40.589Z,18.90
2017-05-14T09:01:10.667Z,18.20
2017-05-14T09:03:40.444Z,18.40
2017-05-14T09:06:10.248Z,18.70
2017-05-14T09:08:41.408Z,19.40
2017-05-14T09:11:11.200Z,19.90
2017-05-14T09:13:41.949Z,19.80
2017-05-14T09:16:12.504Z,19.60
2017-05-14T09:18:43.146Z,18.80
2017-05-14T09:21:14.139Z,18.50
2017-05-14T09:23:43.938Z,18.50
2017-05-14T09:26:13.678Z,18.60
2017-05-14T09:28:44.045Z,18.60
2017-05-14T09:31:13.912Z,19.60
2017-05-14T09:33:45.777Z,20.70
2017-05-14T09:36:15.568Z,20.30
2017-05-14T09:38:45.893Z,21.80
2017-05-14T09:41:16.528Z,21.80
2017-05-14T09:43:46.290Z,22.00
2017-05-14T09:46:16.658Z,23.50
2017-05-14T09:48:46.394Z,22.70
2017-05-14T09:51:16.575Z,22.90
2017-05-14T09:53:46.788Z,23.80
2017-05-14T09:56:17.846Z,23.50
2017-05-14T09:58:48.224Z,21.90
2017-05-14T10:01:17.993Z,21.40
2017-05-14T10:03:47.794Z,21.20
2017-05-14T10:06:18.138Z,20.90
2017-05-14T10:08:47.941Z,21.10
2017-05-14T10:11:18.829Z,21.30
2017-05-14T10:13:48.621Z,20.70
2017-05-14T10:16:18.436Z,21.00
2017-05-14T10:20:08.079Z,21.50
2017-05-14T10:24:44.130Z,21.40
2017-05-14T10:27:13.874Z,21.90
2017-05-14T10:29:45.006Z,22.50
2017-05-14T10:32:14.824Z,22.60
2017-05-14T10:34:44.601Z,22.60
2017-05-14T10:37:15.295Z,22.70
2017-05-14T10:39:48.398Z,22.70
2017-05-14T10:42:18.707Z,21.90
2017-05-14T10:44:49.794Z,22.20
2017-05-14T10:47:20.624Z,22.80
2017-05-14T10:49:51.404Z,22.70
2017-05-14T10:52:22.200Z,22.50
2017-05-14T10:54:53.040Z,23.10
2017-05-14T10:57:23.884Z,22.80
2017-05-14T10:59:53.087Z,22.70
2017-05-14T11:02:23.509Z,22.50
2017-05-14T11:04:54.951Z,22.90
2017-05-14T11:07:25.395Z,23.00
2017-05-14T11:09:56.195Z,22.70
2017-05-14T11:12:26.522Z,22.70
2017-05-14T11:14:56.318Z,22.90
2017-05-14T11:17:26.092Z,22.90
2017-05-14T11:19:56.650Z,22.80
2017-05-14T11:22:26.411Z,22.80
2017-05-14T11:24:56.133Z,22.70
2017-05-14T11:27:27.335Z,22.60
2017-05-14T11:29:56.362Z,22.50
2017-05-14T11:32:27.550Z,21.80
2017-05-14T11:34:58.102Z,22.10
2017-05-14T11:37:27.862Z,22.10
2017-05-14T11:39:58.189Z,22.30
2017-05-14T11:42:27.952Z,22.40
2017-05-14T11:44:57.708Z,22.50
2017-05-14T11:47:27.499Z,22.70
2017-05-14T11:49:57.741Z,22.90
2017-05-14T11:52:32.607Z,22.80
2017-05-14T11:55:02.461Z,22.80
2017-05-14T11:57:35.845Z,22.80
2017-05-14T12:00:05.573Z,22.30
2017-05-14T12:02:35.349Z,21.60
2017-05-14T12:05:06.005Z,21.80
2017-05-14T12:07:35.798Z,22.10
2017-05-14T12:10:07.046Z,22.10
2017-05-14T12:12:36.741Z,21.80
2017-05-14T12:15:06.525Z,21.80
2017-05-14T12:17:36.281Z,21.80
2017-05-14T12:20:06.046Z,21.80
2017-05-14T12:22:35.783Z,22.00
2017-05-14T12:25:06.833Z,21.90
2017-05-14T12:27:36.664Z,21.90
2017-05-14T12:30:07.027Z,21.90
2017-05-14T12:32:36.774Z,21.50
2017-05-14T12:35:07.479Z,21.70
2017-05-14T12:37:37.211Z,21.80
2017-05-14T12:40:08.643Z,21.80
2017-05-14T12:42:38.373Z,21.90
2017-05-14T12:45:08.216Z,21.90
2017-05-14T12:47:37.947Z,21.90
2017-05-14T12:50:07.660Z,21.70
2017-05-14T12:52:40.795Z,21.50
2017-05-14T12:55:10.609Z,21.10
2017-05-14T12:57:42.298Z,21.20
2017-05-14T13:00:12.072Z,21.20
2017-05-14T13:02:41.862Z,21.10
2017-05-14T13:05:11.554Z,21.00
2017-05-14T13:07:43.266Z,21.10
2017-05-14T13:10:13.114Z,21.20
2017-05-14T13:12:45.256Z,21.20
2017-05-14T13:15:15.300Z,21.30
2017-05-14T13:17:45.059Z,21.40
2017-05-14T13:20:14.828Z,21.40
2017-05-14T13:22:44.567Z,21.60
2017-05-14T13:25:14.316Z,21.80
2017-05-14T13:27:44.093Z,21.50
2017-05-14T13:30:15.509Z,21.40
2017-05-14T13:32:45.440Z,21.30
2017-05-14T13:35:15.194Z,21.10
2017-05-14T13:37:45.518Z,20.80
2017-05-14T13:40:15.285Z,21.00
2017-05-14T13:42:45.803Z,21.20
2017-05-14T13:45:19.180Z,21.10
2017-05-14T13:47:48.985Z,21.20
2017-05-14T13:50:20.157Z,21.30
2017-05-14T13:52:51.766Z,21.40
2017-05-14T13:55:21.852Z,21.50
2017-05-14T13:57:51.693Z,21.70
2017-05-14T14:00:21.742Z,21.70
2017-05-14T14:02:51.617Z,21.80
2017-05-14T14:05:21.572Z,21.80
2017-05-14T14:07:51.360Z,21.30
2017-05-14T14:10:22.167Z,21.00
2017-05-14T14:12:51.223Z,20.90
2017-05-14T14:15:20.964Z,21.10
2017-05-14T14:17:50.797Z,21.10
2017-05-14T14:20:21.591Z,21.20
2017-05-14T14:22:51.550Z,21.30
2017-05-14T14:25:21.902Z,20.90
2017-05-14T14:27:52.960Z,20.90
2017-05-14T14:30:22.918Z,20.80
2017-05-14T14:32:53.502Z,20.50
2017-05-14T14:35:25.257Z,20.50
2017-05-14T14:37:56.718Z,20.50
2017-05-14T14:45:55.114Z,20.70
2017-05-14T14:48:25.496Z,20.50
2017-05-14T14:50:54.752Z,20.40
2017-05-14T14:53:25.436Z,20.60
2017-05-14T14:55:55.257Z,20.70
2017-05-14T14:58:25.786Z,20.70
2017-05-14T15:00:56.493Z,20.40
2017-05-14T15:03:26.260Z,20.20
2017-05-14T15:05:56.913Z,20.00
2017-05-14T15:08:27.115Z,20.00
2017-05-14T15:10:58.183Z,19.70
2017-05-14T15:13:29.212Z,19.50
2017-05-14T15:16:30.348Z,19.40
2017-05-14T15:19:00.109Z,19.20
2017-05-14T15:21:29.910Z,18.90
2017-05-14T15:23:59.635Z,18.50
2017-05-14T15:26:29.363Z,18.00
2017-05-14T15:28:59.147Z,17.50
2017-05-14T15:31:28.876Z,17.20
2017-05-14T15:33:59.228Z,16.90
2017-05-14T15:36:29.043Z,16.60
2017-05-14T15:38:58.764Z,16.00
2017-05-14T15:41:28.539Z,15.80
2017-05-14T15:43:58.266Z,16.00
2017-05-14T15:46:29.493Z,16.10
2017-05-14T15:49:00.120Z,16.20
2017-05-14T15:51:30.475Z,16.20
2017-05-14T15:54:01.406Z,16.50
2017-05-14T15:56:31.245Z,16.90
2017-05-14T15:59:02.635Z,17.30
2017-05-14T16:01:31.804Z,17.20
2017-05-14T16:04:02.285Z,17.60
2017-05-14T16:07:52.140Z,17.80
2017-05-14T16:10:21.951Z,17.90
2017-05-14T16:12:53.296Z,17.80
2017-05-14T16:15:24.499Z,18.00
2017-05-14T16:17:55.678Z,18.20
2017-05-14T16:20:26.351Z,18.20
2017-05-14T16:22:56.207Z,18.30
2017-05-14T16:25:26.189Z,18.30
2017-05-14T16:27:56.104Z,18.20
2017-05-14T16:30:25.960Z,18.20
2017-05-14T16:32:58.128Z,18.20
2017-05-14T16:35:28.519Z,18.10
2017-05-14T16:37:58.325Z,18.10
2017-05-14T16:40:28.095Z,18.30
2017-05-14T16:42:57.843Z,18.30
2017-05-14T16:45:26.839Z,18.30
2017-05-14T16:47:56.690Z,18.10
2017-05-14T16:50:27.593Z,18.10
2017-05-14T16:54:16.811Z,18.00
2017-05-14T16:56:47.512Z,17.80
2017-05-14T16:59:17.771Z,17.80
2017-05-14T17:01:47.723Z,17.90
2017-05-14T17:04:17.809Z,18.00
2017-05-14T17:06:47.674Z,18.10
2017-05-14T17:09:17.483Z,18.00
2017-05-14T17:11:48.039Z,17.90
2017-05-14T17:14:18.823Z,17.70
2017-05-14T17:16:48.615Z,17.60
2017-05-14T17:19:18.351Z,17.60
2017-05-14T17:21:48.864Z,17.60
2017-05-14T17:24:18.683Z,17.80
2017-05-14T17:29:30.802Z,17.80
2017-05-14T17:32:00.846Z,17.70
2017-05-14T17:34:31.611Z,17.60
2017-05-14T17:37:01.903Z,17.50
2017-05-14T17:39:33.079Z,17.40
2017-05-14T17:42:03.347Z,17.40
2017-05-14T17:44:36.751Z,17.30
2017-05-14T17:47:07.402Z,17.20
2017-05-14T17:49:40.780Z,17.10
2017-05-14T17:52:11.186Z,17.00
2017-05-14T17:54:41.624Z,16.90
2017-05-14T17:57:12.152Z,16.90
2017-05-14T17:59:42.179Z,17.00
2017-05-14T18:02:16.282Z,16.80
2017-05-14T18:04:46.324Z,16.70
2017-05-14T18:07:18.221Z,16.60
2017-05-14T18:09:49.509Z,16.60
2017-05-14T18:12:19.480Z,16.50
2017-05-14T18:14:50.067Z,16.50
2017-05-14T18:17:19.987Z,16.40
2017-05-14T18:19:50.402Z,16.30
2017-05-14T18:22:23.526Z,16.20
2017-05-14T18:24:54.586Z,16.20
2017-05-14T18:27:25.543Z,16.30
2017-05-14T18:29:55.366Z,16.40
2017-05-14T18:32:25.184Z,16.40
2017-05-14T18:34:57.496Z,16.30
2017-05-14T18:37:27.570Z,16.30
2017-05-14T18:39:57.546Z,16.20
2017-05-14T18:42:29.705Z,16.20
2017-05-14T18:44:59.466Z,16.10
2017-05-14T18:47:29.865Z,16.00
2017-05-14T18:50:01.895Z,15.80
2017-05-14T18:52:33.023Z,15.60
2017-05-14T18:55:05.291Z,15.40
2017-05-14T18:57:35.053Z,15.20
2017-05-14T19:00:08.415Z,15.40
2017-05-14T19:02:38.277Z,15.30
2017-05-14T19:05:08.142Z,15.40
2017-05-14T19:07:38.613Z,15.40
2017-05-14T19:10:08.415Z,15.40
2017-05-14T19:12:38.488Z,15.40
2017-05-14T19:15:09.010Z,15.50
2017-05-14T19:17:38.751Z,15.60
2017-05-14T19:20:12.838Z,15.60
2017-05-14T19:22:42.611Z,15.60
2017-05-14T19:25:14.188Z,15.50
2017-05-14T19:27:44.730Z,15.60
2017-05-14T19:30:15.300Z,15.60
2017-05-14T19:33:15.675Z,15.70
2017-05-14T19:35:47.036Z,15.70
2017-05-14T19:38:17.710Z,15.70
2017-05-14T19:40:48.831Z,15.70
2017-05-14T19:43:20.332Z,15.60
2017-05-14T19:45:57.248Z,15.70
2017-05-14T19:48:29.510Z,15.60
2017-05-14T19:51:01.189Z,15.50
2017-05-14T19:53:32.652Z,15.40
2017-05-14T19:56:03.691Z,15.40
2017-05-14T19:58:35.398Z,15.50
2017-05-14T20:01:04.476Z,15.50
2017-05-14T20:03:38.479Z,15.70
2017-05-14T20:06:09.130Z,15.70
2017-05-14T20:08:43.196Z,15.70
2017-05-14T20:11:13.319Z,15.70
2017-05-14T20:13:45.044Z,15.80
2017-05-14T20:16:15.028Z,15.80
2017-05-14T20:18:46.062Z,15.80
2017-05-14T20:21:16.762Z,15.80
2017-05-14T20:23:49.136Z,15.90
2017-05-14T20:26:19.398Z,15.80
2017-05-14T20:28:51.779Z,15.60
2017-05-14T20:31:21.591Z,15.30
2017-05-14T20:33:53.880Z,15.30
2017-05-14T20:36:24.849Z,15.20
2017-05-14T20:38:55.532Z,15.10
2017-05-14T20:41:25.256Z,15.00
2017-05-14T20:43:55.379Z,14.80
2017-05-14T20:46:26.859Z,14.80
2017-05-14T20:48:57.219Z,13.70
2017-05-14T20:51:28.462Z,13.00
2017-05-14T20:53:58.984Z,12.80
2017-05-14T20:56:30.402Z,12.70
2017-05-14T20:59:00.296Z,12.70
2017-05-14T21:01:30.354Z,12.50
2017-05-14T21:04:03.312Z,12.50
2017-05-14T21:06:33.389Z,12.60
2017-05-14T21:09:04.283Z,12.60
2017-05-14T21:11:34.767Z,12.60
2017-05-14T21:14:05.293Z,12.70
2017-05-14T21:16:35.718Z,12.80
2017-05-14T21:19:08.161Z,12.90
2017-05-14T21:21:38.219Z,12.90
2017-05-14T21:24:07.945Z,12.70
2017-05-14T21:26:38.796Z,12.60
2017-05-14T21:29:09.772Z,12.60
2017-05-14T21:31:39.519Z,12.60
2017-05-14T21:34:09.279Z,12.60
2017-05-14T21:36:39.681Z,12.70
2017-05-14T21:39:14.012Z,12.70
2017-05-14T21:41:44.784Z,12.70
2017-05-14T21:44:14.528Z,12.60
2017-05-14T21:46:44.271Z,12.60
2017-05-14T21:49:14.023Z,12.60
2017-05-14T21:51:43.804Z,12.50
2017-05-14T21:54:12.836Z,12.50
2017-05-14T21:56:43.336Z,12.70
2017-05-14T21:59:13.842Z,12.70
2017-05-14T22:01:47.755Z,12.70
2017-05-14T22:04:18.944Z,12.80
2017-05-14T22:06:49.676Z,12.90
2017-05-14T22:09:19.485Z,13.00
2017-05-14T22:11:49.271Z,13.00
2017-05-14T22:14:19.017Z,13.10
2017-05-14T22:16:48.703Z,13.10
2017-05-14T22:19:18.508Z,13.10
2017-05-14T22:21:48.259Z,13.20
2017-05-14T22:24:17.973Z,13.10
2017-05-14T22:26:47.702Z,13.10
2017-05-14T22:29:17.448Z,13.00
2017-05-14T22:31:47.171Z,13.00
2017-05-14T22:34:16.142Z,12.90
2017-05-14T22:36:45.909Z,12.90
2017-05-14T22:39:16.122Z,12.90
2017-05-14T22:41:47.730Z,12.90
2017-05-14T22:44:16.652Z,12.80
2017-05-14T22:46:46.303Z,12.80
2017-05-14T22:49:16.061Z,12.80
2017-05-14T22:51:45.775Z,12.80
2017-05-14T22:54:15.488Z,12.80
2017-05-14T22:56:45.216Z,12.80
2017-05-14T22:59:14.925Z,12.80
2017-05-14T23:01:44.631Z,12.80
2017-05-14T23:04:14.380Z,12.80
2017-05-14T23:06:44.091Z,12.80
2017-05-14T23:09:13.784Z,12.90
2017-05-14T23:11:43.527Z,12.90
2017-05-14T23:14:13.265Z,12.90
2017-05-14T23:16:43.027Z,12.90
2017-05-14T23:19:12.713Z,12.80
2017-05-14T23:21:42.483Z,12.80
2017-05-14T23:24:12.199Z,12.70
2017-05-14T23:28:01.301Z,12.70
2017-05-14T23:30:31.044Z,12.60
2017-05-14T23:33:00.717Z,12.60
2017-05-14T23:35:30.407Z,12.60
2017-05-14T23:38:00.135Z,12.50
2017-05-14T23:40:29.907Z,12.40
2017-05-14T23:42:59.591Z,12.40
2017-05-14T23:45:29.292Z,12.20
2017-05-14T23:47:59.032Z,12.10
2017-05-14T23:50:28.752Z,12.10
2017-05-14T23:52:58.628Z,12.10
2017-05-14T23:55:28.323Z,12.00
2017-05-14T23:57:58.082Z,11.80
